sensor_id;sensor_type;location;lat;lon;timestamp;P1;durP1;ratioP1;P2;durP2;ratioP2
53108;SDS011;39007;53.090;6.074;2023-05-10T00:01:47;20.60;;;17.63;;
53108;SDS011;39007;53.090;6.074;2023-05-10T00:04:16;21.10;;;18.45;;
53108;SDS011;39007;53.090;6.074;2023-05-10T00:06:43;20.80;;;18.63;;
53108;SDS011;39007;53.090;6.074;2023-05-10T00:09:10;20.40;;;18.20;;
53108;SDS011;39007;53.090;6.074;2023-05-10T00:11:36;20.50;;;18.30;;
53108;SDS011;39007;53.090;6.074;2023-05-10T00:14:05;20.15;;;17.25;;
53108;SDS011;39007;53.090;6.074;2023-05-10T00:16:34;19.13;;;17.05;;
53108;SDS011;39007;53.090;6.074;2023-05-10T00:19:03;20.90;;;17.08;;
53108;SDS011;39007;53.090;6.074;2023-05-10T00:29:25;26.00;;;12.65;;
53108;SDS011;39007;53.090;6.074;2023-05-10T00:31:56;15.30;;;12.80;;
53108;SDS011;39007;53.090;6.074;2023-05-10T00:34:23;16.85;;;13.60;;
53108;SDS011;39007;53.090;6.074;2023-05-10T00:36:49;14.32;;;12.77;;
53108;SDS011;39007;53.090;6.074;2023-05-10T00:39:21;12.75;;;11.45;;
53108;SDS011;39007;53.090;6.074;2023-05-10T00:41:47;14.32;;;12.20;;
53108;SDS011;39007;53.090;6.074;2023-05-10T00:44:16;13.20;;;11.85;;
53108;SDS011;39007;53.090;6.074;2023-05-10T00:46:44;12.73;;;11.32;;
53108;SDS011;39007;53.090;6.074;2023-05-10T00:49:11;12.40;;;11.18;;
53108;SDS011;39007;53.090;6.074;2023-05-10T00:51:37;11.60;;;10.40;;
53108;SDS011;39007;53.090;6.074;2023-05-10T00:54:03;12.07;;;10.88;;
53108;SDS011;39007;53.090;6.074;2023-05-10T00:56:31;13.15;;;11.75;;
53108;SDS011;39007;53.090;6.074;2023-05-10T00:58:58;12.65;;;10.70;;
53108;SDS011;39007;53.090;6.074;2023-05-10T01:01:24;12.50;;;10.48;;
53108;SDS011;39007;53.090;6.074;2023-05-10T01:03:52;14.68;;;11.93;;
53108;SDS011;39007;53.090;6.074;2023-05-10T01:06:20;15.40;;;11.23;;
53108;SDS011;39007;53.090;6.074;2023-05-10T01:08:49;15.90;;;12.23;;
53108;SDS011;39007;53.090;6.074;2023-05-10T01:11:18;16.92;;;12.18;;
53108;SDS011;39007;53.090;6.074;2023-05-10T01:13:45;15.93;;;11.73;;
53108;SDS011;39007;53.090;6.074;2023-05-10T01:16:13;16.52;;;12.23;;
53108;SDS011;39007;53.090;6.074;2023-05-10T01:18:42;16.35;;;11.77;;
53108;SDS011;39007;53.090;6.074;2023-05-10T01:34:54;30.80;;;17.47;;
53108;SDS011;39007;53.090;6.074;2023-05-10T01:37:29;33.58;;;18.60;;
53108;SDS011;39007;53.090;6.074;2023-05-10T01:40:06;33.17;;;19.05;;
53108;SDS011;39007;53.090;6.074;2023-05-10T01:42:36;41.83;;;21.67;;
53108;SDS011;39007;53.090;6.074;2023-05-10T01:47:53;39.30;;;21.00;;
53108;SDS011;39007;53.090;6.074;2023-05-10T01:50:22;46.88;;;23.20;;
53108;SDS011;39007;53.090;6.074;2023-05-10T01:52:53;43.47;;;23.58;;
53108;SDS011;39007;53.090;6.074;2023-05-10T01:55:23;43.47;;;24.30;;
53108;SDS011;39007;53.090;6.074;2023-05-10T01:57:56;36.78;;;22.48;;
53108;SDS011;39007;53.090;6.074;2023-05-10T02:00:26;36.10;;;23.10;;
53108;SDS011;39007;53.090;6.074;2023-05-10T02:02:53;41.97;;;23.77;;
53108;SDS011;39007;53.090;6.074;2023-05-10T02:05:29;46.85;;;24.90;;
53108;SDS011;39007;53.090;6.074;2023-05-10T02:07:57;43.45;;;24.48;;
53108;SDS011;39007;53.090;6.074;2023-05-10T02:10:23;39.75;;;21.90;;
53108;SDS011;39007;53.090;6.074;2023-05-10T02:12:54;39.58;;;23.75;;
53108;SDS011;39007;53.090;6.074;2023-05-10T02:15:22;40.70;;;22.85;;
53108;SDS011;39007;53.090;6.074;2023-05-10T02:17:54;39.00;;;23.35;;
53108;SDS011;39007;53.090;6.074;2023-05-10T02:20:29;37.85;;;24.02;;
53108;SDS011;39007;53.090;6.074;2023-05-10T02:22:57;42.20;;;24.38;;
53108;SDS011;39007;53.090;6.074;2023-05-10T02:25:23;39.35;;;23.70;;
53108;SDS011;39007;53.090;6.074;2023-05-10T02:27:51;36.60;;;24.17;;
53108;SDS011;39007;53.090;6.074;2023-05-10T02:30:29;37.88;;;22.95;;
53108;SDS011;39007;53.090;6.074;2023-05-10T02:32:57;44.75;;;25.52;;
53108;SDS011;39007;53.090;6.074;2023-05-10T02:35:23;39.83;;;24.55;;
53108;SDS011;39007;53.090;6.074;2023-05-10T02:37:54;36.15;;;23.05;;
53108;SDS011;39007;53.090;6.074;2023-05-10T02:40:24;38.20;;;23.10;;
53108;SDS011;39007;53.090;6.074;2023-05-10T02:42:52;38.30;;;24.92;;
53108;SDS011;39007;53.090;6.074;2023-05-10T02:45:25;40.38;;;24.45;;
53108;SDS011;39007;53.090;6.074;2023-05-10T02:47:53;37.25;;;22.38;;
53108;SDS011;39007;53.090;6.074;2023-05-10T02:50:19;35.28;;;21.80;;
53108;SDS011;39007;53.090;6.074;2023-05-10T02:52:47;30.13;;;20.20;;
53108;SDS011;39007;53.090;6.074;2023-05-10T02:55:25;28.98;;;19.50;;
53108;SDS011;39007;53.090;6.074;2023-05-10T02:57:54;30.65;;;19.50;;
53108;SDS011;39007;53.090;6.074;2023-05-10T03:00:23;26.40;;;18.35;;
53108;SDS011;39007;53.090;6.074;2023-05-10T03:02:50;27.90;;;17.92;;
53108;SDS011;39007;53.090;6.074;2023-05-10T03:05:16;28.85;;;19.08;;
53108;SDS011;39007;53.090;6.074;2023-05-10T03:07:45;26.77;;;16.33;;
53108;SDS011;39007;53.090;6.074;2023-05-10T03:10:15;27.98;;;17.52;;
53108;SDS011;39007;53.090;6.074;2023-05-10T03:13:01;27.92;;;17.48;;
53108;SDS011;39007;53.090;6.074;2023-05-10T03:18:01;22.63;;;15.60;;
53108;SDS011;39007;53.090;6.074;2023-05-10T03:20:32;23.63;;;15.93;;
53108;SDS011;39007;53.090;6.074;2023-05-10T03:23:07;25.05;;;17.17;;
53108;SDS011;39007;53.090;6.074;2023-05-10T03:25:33;20.48;;;14.57;;
53108;SDS011;39007;53.090;6.074;2023-05-10T03:28:03;21.88;;;15.65;;
53108;SDS011;39007;53.090;6.074;2023-05-10T03:30:30;26.80;;;16.15;;
53108;SDS011;39007;53.090;6.074;2023-05-10T03:33:03;20.13;;;15.93;;
53108;SDS011;39007;53.090;6.074;2023-05-10T03:35:39;20.05;;;16.15;;
53108;SDS011;39007;53.090;6.074;2023-05-10T03:38:05;23.08;;;16.63;;
53108;SDS011;39007;53.090;6.074;2023-05-10T03:40:31;17.50;;;14.73;;
53108;SDS011;39007;53.090;6.074;2023-05-10T03:42:58;20.08;;;16.75;;
53108;SDS011;39007;53.090;6.074;2023-05-10T03:45:25;17.67;;;15.77;;
53108;SDS011;39007;53.090;6.074;2023-05-10T03:47:51;18.35;;;15.90;;
53108;SDS011;39007;53.090;6.074;2023-05-10T03:50:20;18.30;;;16.40;;
53108;SDS011;39007;53.090;6.074;2023-05-10T03:52:46;21.80;;;17.45;;
53108;SDS011;39007;53.090;6.074;2023-05-10T03:55:14;19.67;;;16.45;;
53108;SDS011;39007;53.090;6.074;2023-05-10T03:57:42;18.35;;;16.05;;
53108;SDS011;39007;53.090;6.074;2023-05-10T04:00:08;17.90;;;16.02;;
53108;SDS011;39007;53.090;6.074;2023-05-10T04:02:34;17.52;;;15.73;;
53108;SDS011;39007;53.090;6.074;2023-05-10T04:05:01;16.30;;;14.80;;
53108;SDS011;39007;53.090;6.074;2023-05-10T04:07:27;18.38;;;15.68;;
53108;SDS011;39007;53.090;6.074;2023-05-10T04:09:54;15.30;;;13.80;;
53108;SDS011;39007;53.090;6.074;2023-05-10T04:12:23;15.38;;;13.77;;
53108;SDS011;39007;53.090;6.074;2023-05-10T04:14:51;14.98;;;13.48;;
53108;SDS011;39007;53.090;6.074;2023-05-10T04:17:17;14.05;;;12.73;;
53108;SDS011;39007;53.090;6.074;2023-05-10T04:19:55;12.57;;;11.38;;
53108;SDS011;39007;53.090;6.074;2023-05-10T04:22:21;12.00;;;10.90;;
53108;SDS011;39007;53.090;6.074;2023-05-10T04:24:47;10.68;;;9.68;;
53108;SDS011;39007;53.090;6.074;2023-05-10T04:27:13;10.73;;;9.63;;
53108;SDS011;39007;53.090;6.074;2023-05-10T04:29:40;9.18;;;8.27;;
53108;SDS011;39007;53.090;6.074;2023-05-10T04:32:06;10.32;;;8.13;;
53108;SDS011;39007;53.090;6.074;2023-05-10T04:34:36;7.00;;;4.20;;
53108;SDS011;39007;53.090;6.074;2023-05-10T04:37:02;4.40;;;3.28;;
53108;SDS011;39007;53.090;6.074;2023-05-10T04:39:29;4.45;;;3.33;;
53108;SDS011;39007;53.090;6.074;2023-05-10T04:41:55;3.88;;;2.75;;
53108;SDS011;39007;53.090;6.074;2023-05-10T04:44:23;3.70;;;2.42;;
53108;SDS011;39007;53.090;6.074;2023-05-10T04:46:49;3.65;;;2.90;;
53108;SDS011;39007;53.090;6.074;2023-05-10T04:49:17;3.47;;;2.10;;
53108;SDS011;39007;53.090;6.074;2023-05-10T04:51:44;3.00;;;2.00;;
53108;SDS011;39007;53.090;6.074;2023-05-10T04:54:10;2.85;;;1.95;;
53108;SDS011;39007;53.090;6.074;2023-05-10T04:56:36;2.78;;;1.98;;
53108;SDS011;39007;53.090;6.074;2023-05-10T04:59:03;2.65;;;1.70;;
53108;SDS011;39007;53.090;6.074;2023-05-10T05:01:29;3.72;;;2.20;;
53108;SDS011;39007;53.090;6.074;2023-05-10T05:03:56;3.78;;;2.40;;
53108;SDS011;39007;53.090;6.074;2023-05-10T05:06:22;3.20;;;2.22;;
53108;SDS011;39007;53.090;6.074;2023-05-10T05:08:50;3.28;;;1.77;;
53108;SDS011;39007;53.090;6.074;2023-05-10T05:11:16;3.17;;;1.40;;
53108;SDS011;39007;53.090;6.074;2023-05-10T05:13:46;3.90;;;1.50;;
53108;SDS011;39007;53.090;6.074;2023-05-10T05:16:12;3.25;;;1.40;;
53108;SDS011;39007;53.090;6.074;2023-05-10T05:18:41;1.20;;;1.10;;
53108;SDS011;39007;53.090;6.074;2023-05-10T05:21:22;2.10;;;1.40;;
53108;SDS011;39007;53.090;6.074;2023-05-10T05:23:51;3.85;;;1.40;;
53108;SDS011;39007;53.090;6.074;2023-05-10T05:26:17;2.58;;;1.50;;
53108;SDS011;39007;53.090;6.074;2023-05-10T05:28:44;2.88;;;1.73;;
53108;SDS011;39007;53.090;6.074;2023-05-10T05:31:10;2.80;;;1.63;;
53108;SDS011;39007;53.090;6.074;2023-05-10T05:33:42;2.90;;;1.95;;
53108;SDS011;39007;53.090;6.074;2023-05-10T05:36:08;5.35;;;2.03;;
53108;SDS011;39007;53.090;6.074;2023-05-10T05:38:35;5.10;;;2.13;;
53108;SDS011;39007;53.090;6.074;2023-05-10T05:41:01;3.10;;;2.30;;
53108;SDS011;39007;53.090;6.074;2023-05-10T05:43:27;3.75;;;2.33;;
53108;SDS011;39007;53.090;6.074;2023-05-10T05:45:53;2.83;;;1.95;;
53108;SDS011;39007;53.090;6.074;2023-05-10T05:48:20;3.03;;;2.10;;
53108;SDS011;39007;53.090;6.074;2023-05-10T05:50:53;3.10;;;1.98;;
53108;SDS011;39007;53.090;6.074;2023-05-10T05:53:23;2.80;;;1.80;;
53108;SDS011;39007;53.090;6.074;2023-05-10T05:55:53;2.50;;;1.65;;
53108;SDS011;39007;53.090;6.074;2023-05-10T05:58:20;3.60;;;2.08;;
53108;SDS011;39007;53.090;6.074;2023-05-10T06:00:46;3.17;;;1.88;;
53108;SDS011;39007;53.090;6.074;2023-05-10T06:03:12;3.33;;;2.00;;
53108;SDS011;39007;53.090;6.074;2023-05-10T06:05:38;2.92;;;1.92;;
53108;SDS011;39007;53.090;6.074;2023-05-10T06:08:05;2.83;;;1.80;;
53108;SDS011;39007;53.090;6.074;2023-05-10T06:10:33;4.85;;;2.00;;
53108;SDS011;39007;53.090;6.074;2023-05-10T06:12:59;3.63;;;1.90;;
53108;SDS011;39007;53.090;6.074;2023-05-10T06:15:25;4.10;;;2.65;;
53108;SDS011;39007;53.090;6.074;2023-05-10T06:17:52;2.92;;;1.92;;
53108;SDS011;39007;53.090;6.074;2023-05-10T06:20:21;4.07;;;2.65;;
53108;SDS011;39007;53.090;6.074;2023-05-10T06:22:47;4.47;;;2.08;;
53108;SDS011;39007;53.090;6.074;2023-05-10T06:25:19;5.85;;;2.10;;
53108;SDS011;39007;53.090;6.074;2023-05-10T06:27:48;2.80;;;1.80;;
53108;SDS011;39007;53.090;6.074;2023-05-10T06:30:14;4.15;;;1.90;;
53108;SDS011;39007;53.090;6.074;2023-05-10T06:32:41;3.55;;;1.88;;
53108;SDS011;39007;53.090;6.074;2023-05-10T06:35:09;2.88;;;1.90;;
53108;SDS011;39007;53.090;6.074;2023-05-10T06:37:36;4.28;;;2.88;;
53108;SDS011;39007;53.090;6.074;2023-05-10T06:40:02;4.00;;;3.17;;
53108;SDS011;39007;53.090;6.074;2023-05-10T06:42:29;5.55;;;3.55;;
53108;SDS011;39007;53.090;6.074;2023-05-10T06:44:58;5.07;;;3.20;;
53108;SDS011;39007;53.090;6.074;2023-05-10T06:47:24;4.82;;;3.50;;
53108;SDS011;39007;53.090;6.074;2023-05-10T06:49:50;6.80;;;3.45;;
53108;SDS011;39007;53.090;6.074;2023-05-10T06:52:16;4.40;;;3.08;;
53108;SDS011;39007;53.090;6.074;2023-05-10T06:54:45;4.05;;;2.70;;
53108;SDS011;39007;53.090;6.074;2023-05-10T06:57:12;4.57;;;2.95;;
53108;SDS011;39007;53.090;6.074;2023-05-10T06:59:42;3.78;;;2.85;;
53108;SDS011;39007;53.090;6.074;2023-05-10T07:02:11;5.20;;;3.30;;
53108;SDS011;39007;53.090;6.074;2023-05-10T07:04:39;5.68;;;3.17;;
53108;SDS011;39007;53.090;6.074;2023-05-10T07:07:08;5.40;;;3.33;;
53108;SDS011;39007;53.090;6.074;2023-05-10T07:09:35;6.20;;;3.40;;
53108;SDS011;39007;53.090;6.074;2023-05-10T07:12:02;4.35;;;3.03;;
53108;SDS011;39007;53.090;6.074;2023-05-10T07:14:31;3.90;;;3.00;;
53108;SDS011;39007;53.090;6.074;2023-05-10T07:16:58;4.70;;;3.42;;
53108;SDS011;39007;53.090;6.074;2023-05-10T07:19:25;6.43;;;3.50;;
53108;SDS011;39007;53.090;6.074;2023-05-10T07:21:52;5.93;;;3.45;;
53108;SDS011;39007;53.090;6.074;2023-05-10T07:24:18;5.13;;;3.83;;
53108;SDS011;39007;53.090;6.074;2023-05-10T07:26:45;7.63;;;3.15;;
53108;SDS011;39007;53.090;6.074;2023-05-10T07:29:12;5.57;;;3.33;;
53108;SDS011;39007;53.090;6.074;2023-05-10T07:31:46;6.47;;;3.88;;
53108;SDS011;39007;53.090;6.074;2023-05-10T07:34:12;5.70;;;4.13;;
53108;SDS011;39007;53.090;6.074;2023-05-10T07:36:38;6.85;;;4.30;;
53108;SDS011;39007;53.090;6.074;2023-05-10T07:39:10;6.47;;;3.95;;
53108;SDS011;39007;53.090;6.074;2023-05-10T07:41:36;6.50;;;4.80;;
53108;SDS011;39007;53.090;6.074;2023-05-10T07:44:03;6.65;;;4.88;;
53108;SDS011;39007;53.090;6.074;2023-05-10T07:46:32;7.38;;;5.00;;
53108;SDS011;39007;53.090;6.074;2023-05-10T07:48:59;8.27;;;4.85;;
53108;SDS011;39007;53.090;6.074;2023-05-10T07:51:26;8.05;;;5.20;;
53108;SDS011;39007;53.090;6.074;2023-05-10T07:53:53;7.43;;;5.32;;
53108;SDS011;39007;53.090;6.074;2023-05-10T07:56:24;6.93;;;4.75;;
53108;SDS011;39007;53.090;6.074;2023-05-10T07:58:53;7.70;;;4.90;;
53108;SDS011;39007;53.090;6.074;2023-05-10T08:01:21;8.80;;;5.47;;
53108;SDS011;39007;53.090;6.074;2023-05-10T08:03:49;12.23;;;5.47;;
53108;SDS011;39007;53.090;6.074;2023-05-10T08:06:21;8.80;;;5.50;;
53108;SDS011;39007;53.090;6.074;2023-05-10T08:08:50;7.93;;;5.85;;
53108;SDS011;39007;53.090;6.074;2023-05-10T08:11:17;7.57;;;4.65;;
53108;SDS011;39007;53.090;6.074;2023-05-10T08:13:47;7.28;;;5.30;;
53108;SDS011;39007;53.090;6.074;2023-05-10T08:16:15;9.18;;;4.78;;
53108;SDS011;39007;53.090;6.074;2023-05-10T08:18:42;8.55;;;5.10;;
53108;SDS011;39007;53.090;6.074;2023-05-10T08:21:14;7.72;;;5.00;;
53108;SDS011;39007;53.090;6.074;2023-05-10T08:23:41;7.10;;;5.32;;
53108;SDS011;39007;53.090;6.074;2023-05-10T08:26:10;7.43;;;5.15;;
53108;SDS011;39007;53.090;6.074;2023-05-10T08:28:46;7.95;;;5.05;;
53108;SDS011;39007;53.090;6.074;2023-05-10T08:31:12;6.50;;;4.72;;
53108;SDS011;39007;53.090;6.074;2023-05-10T08:33:38;7.78;;;5.32;;
53108;SDS011;39007;53.090;6.074;2023-05-10T08:36:04;9.77;;;5.05;;
53108;SDS011;39007;53.090;6.074;2023-05-10T08:38:31;7.57;;;4.90;;
53108;SDS011;39007;53.090;6.074;2023-05-10T08:41:01;9.60;;;5.35;;
53108;SDS011;39007;53.090;6.074;2023-05-10T08:43:28;7.30;;;5.15;;
53108;SDS011;39007;53.090;6.074;2023-05-10T08:45:56;9.55;;;5.88;;
53108;SDS011;39007;53.090;6.074;2023-05-10T08:48:26;8.32;;;5.22;;
53108;SDS011;39007;53.090;6.074;2023-05-10T08:50:57;7.40;;;5.28;;
53108;SDS011;39007;53.090;6.074;2023-05-10T08:53:25;8.13;;;5.32;;
53108;SDS011;39007;53.090;6.074;2023-05-10T08:55:55;9.27;;;5.63;;
53108;SDS011;39007;53.090;6.074;2023-05-10T08:58:22;8.50;;;5.55;;
53108;SDS011;39007;53.090;6.074;2023-05-10T09:00:52;7.18;;;5.00;;
53108;SDS011;39007;53.090;6.074;2023-05-10T09:03:20;7.75;;;5.63;;
53108;SDS011;39007;53.090;6.074;2023-05-10T09:05:50;8.98;;;5.72;;
53108;SDS011;39007;53.090;6.074;2023-05-10T09:08:16;10.50;;;5.75;;
53108;SDS011;39007;53.090;6.074;2023-05-10T09:10:43;8.80;;;5.45;;
53108;SDS011;39007;53.090;6.074;2023-05-10T09:13:14;9.68;;;6.05;;
53108;SDS011;39007;53.090;6.074;2023-05-10T09:15:46;10.20;;;5.57;;
53108;SDS011;39007;53.090;6.074;2023-05-10T09:18:14;8.40;;;6.40;;
53108;SDS011;39007;53.090;6.074;2023-05-10T09:20:40;9.00;;;6.50;;
53108;SDS011;39007;53.090;6.074;2023-05-10T09:23:06;9.50;;;6.28;;
53108;SDS011;39007;53.090;6.074;2023-05-10T09:25:32;10.43;;;6.53;;
53108;SDS011;39007;53.090;6.074;2023-05-10T09:28:02;9.00;;;6.18;;
53108;SDS011;39007;53.090;6.074;2023-05-10T09:30:37;10.13;;;6.03;;
53108;SDS011;39007;53.090;6.074;2023-05-10T09:33:03;7.10;;;4.72;;
53108;SDS011;39007;53.090;6.074;2023-05-10T09:35:30;10.45;;;6.05;;
53108;SDS011;39007;53.090;6.074;2023-05-10T09:37:59;7.85;;;5.93;;
53108;SDS011;39007;53.090;6.074;2023-05-10T09:40:27;9.35;;;6.15;;
53108;SDS011;39007;53.090;6.074;2023-05-10T09:43:04;9.65;;;6.05;;
53108;SDS011;39007;53.090;6.074;2023-05-10T09:45:36;8.88;;;5.65;;
53108;SDS011;39007;53.090;6.074;2023-05-10T09:48:02;6.75;;;5.63;;
53108;SDS011;39007;53.090;6.074;2023-05-10T09:50:31;9.52;;;6.18;;
53108;SDS011;39007;53.090;6.074;2023-05-10T09:52:59;7.70;;;6.13;;
53108;SDS011;39007;53.090;6.074;2023-05-10T09:55:39;8.73;;;6.10;;
53108;SDS011;39007;53.090;6.074;2023-05-10T09:58:15;9.90;;;6.65;;
53108;SDS011;39007;53.090;6.074;2023-05-10T10:00:42;8.75;;;6.28;;
53108;SDS011;39007;53.090;6.074;2023-05-10T10:03:15;8.98;;;6.35;;
53108;SDS011;39007;53.090;6.074;2023-05-10T10:05:42;9.07;;;6.60;;
53108;SDS011;39007;53.090;6.074;2023-05-10T10:08:09;7.93;;;6.47;;
53108;SDS011;39007;53.090;6.074;2023-05-10T10:10:37;8.52;;;6.72;;
53108;SDS011;39007;53.090;6.074;2023-05-10T10:13:05;9.02;;;6.93;;
53108;SDS011;39007;53.090;6.074;2023-05-10T10:15:35;13.05;;;7.85;;
53108;SDS011;39007;53.090;6.074;2023-05-10T10:18:02;10.40;;;7.38;;
53108;SDS011;39007;53.090;6.074;2023-05-10T10:20:32;10.38;;;7.57;;
53108;SDS011;39007;53.090;6.074;2023-05-10T10:23:01;11.77;;;7.75;;
53108;SDS011;39007;53.090;6.074;2023-05-10T10:25:27;11.32;;;7.72;;
53108;SDS011;39007;53.090;6.074;2023-05-10T10:35:40;11.38;;;8.88;;
53108;SDS011;39007;53.090;6.074;2023-05-10T10:38:08;11.10;;;8.95;;
53108;SDS011;39007;53.090;6.074;2023-05-10T10:40:34;13.07;;;9.15;;
53108;SDS011;39007;53.090;6.074;2023-05-10T10:48:36;12.52;;;8.25;;
53108;SDS011;39007;53.090;6.074;2023-05-10T10:51:02;13.77;;;8.60;;
53108;SDS011;39007;53.090;6.074;2023-05-10T10:53:31;11.93;;;8.55;;
53108;SDS011;39007;53.090;6.074;2023-05-10T10:56:02;12.60;;;8.25;;
53108;SDS011;39007;53.090;6.074;2023-05-10T10:58:32;10.48;;;7.85;;
53108;SDS011;39007;53.090;6.074;2023-05-10T11:01:12;12.23;;;8.85;;
53108;SDS011;39007;53.090;6.074;2023-05-10T11:03:38;10.30;;;7.93;;
53108;SDS011;39007;53.090;6.074;2023-05-10T11:06:16;10.65;;;7.80;;
53108;SDS011;39007;53.090;6.074;2023-05-10T11:08:57;11.30;;;7.82;;
53108;SDS011;39007;53.090;6.074;2023-05-10T11:11:23;12.55;;;8.20;;
53108;SDS011;39007;53.090;6.074;2023-05-10T11:13:50;10.07;;;8.13;;
53108;SDS011;39007;53.090;6.074;2023-05-10T11:21:28;15.40;;;8.93;;
53108;SDS011;39007;53.090;6.074;2023-05-10T11:23:55;13.27;;;8.73;;
53108;SDS011;39007;53.090;6.074;2023-05-10T11:26:23;10.98;;;8.68;;
53108;SDS011;39007;53.090;6.074;2023-05-10T11:28:52;12.77;;;8.48;;
53108;SDS011;39007;53.090;6.074;2023-05-10T11:31:20;14.45;;;8.57;;
53108;SDS011;39007;53.090;6.074;2023-05-10T11:33:46;11.25;;;8.52;;
53108;SDS011;39007;53.090;6.074;2023-05-10T11:36:15;12.23;;;8.55;;
53108;SDS011;39007;53.090;6.074;2023-05-10T11:38:45;10.27;;;8.00;;
53108;SDS011;39007;53.090;6.074;2023-05-10T11:41:11;12.98;;;8.23;;
53108;SDS011;39007;53.090;6.074;2023-05-10T11:43:40;12.07;;;8.45;;
53108;SDS011;39007;53.090;6.074;2023-05-10T11:46:07;10.38;;;8.38;;
53108;SDS011;39007;53.090;6.074;2023-05-10T11:48:40;13.75;;;8.73;;
53108;SDS011;39007;53.090;6.074;2023-05-10T11:51:07;10.35;;;8.27;;
53108;SDS011;39007;53.090;6.074;2023-05-10T11:53:36;12.32;;;8.88;;
53108;SDS011;39007;53.090;6.074;2023-05-10T11:56:06;12.90;;;9.13;;
53108;SDS011;39007;53.090;6.074;2023-05-10T11:58:33;13.02;;;9.45;;
53108;SDS011;39007;53.090;6.074;2023-05-10T12:00:59;13.60;;;10.25;;
53108;SDS011;39007;53.090;6.074;2023-05-10T12:03:29;12.57;;;9.27;;
53108;SDS011;39007;53.090;6.074;2023-05-10T12:05:55;15.52;;;10.07;;
53108;SDS011;39007;53.090;6.074;2023-05-10T12:08:23;13.02;;;9.77;;
53108;SDS011;39007;53.090;6.074;2023-05-10T12:10:50;12.45;;;9.00;;
53108;SDS011;39007;53.090;6.074;2023-05-10T12:13:18;12.68;;;9.52;;
53108;SDS011;39007;53.090;6.074;2023-05-10T12:15:45;12.20;;;9.20;;
53108;SDS011;39007;53.090;6.074;2023-05-10T12:18:12;10.90;;;9.00;;
53108;SDS011;39007;53.090;6.074;2023-05-10T12:20:39;10.90;;;8.73;;
53108;SDS011;39007;53.090;6.074;2023-05-10T12:23:05;10.80;;;9.00;;
53108;SDS011;39007;53.090;6.074;2023-05-10T12:25:40;11.90;;;8.70;;
53108;SDS011;39007;53.090;6.074;2023-05-10T12:28:09;11.75;;;9.73;;
53108;SDS011;39007;53.090;6.074;2023-05-10T12:30:36;10.15;;;8.98;;
53108;SDS011;39007;53.090;6.074;2023-05-10T12:33:07;10.73;;;8.05;;
53108;SDS011;39007;53.090;6.074;2023-05-10T12:35:46;11.73;;;7.97;;
53108;SDS011;39007;53.090;6.074;2023-05-10T12:38:25;12.80;;;8.70;;
53108;SDS011;39007;53.090;6.074;2023-05-10T12:40:51;10.20;;;8.20;;
53108;SDS011;39007;53.090;6.074;2023-05-10T12:43:17;9.73;;;7.47;;
53108;SDS011;39007;53.090;6.074;2023-05-10T12:45:46;8.98;;;6.47;;
53108;SDS011;39007;53.090;6.074;2023-05-10T12:48:15;7.78;;;6.30;;
53108;SDS011;39007;53.090;6.074;2023-05-10T12:50:41;9.10;;;6.53;;
53108;SDS011;39007;53.090;6.074;2023-05-10T12:53:08;8.35;;;6.13;;
53108;SDS011;39007;53.090;6.074;2023-05-10T12:55:34;7.78;;;5.25;;
53108;SDS011;39007;53.090;6.074;2023-05-10T12:58:03;8.98;;;5.72;;
53108;SDS011;39007;53.090;6.074;2023-05-10T13:00:30;8.57;;;5.95;;
53108;SDS011;39007;53.090;6.074;2023-05-10T13:02:57;7.00;;;4.88;;
53108;SDS011;39007;53.090;6.074;2023-05-10T13:05:23;8.82;;;5.25;;
53108;SDS011;39007;53.090;6.074;2023-05-10T13:07:52;8.15;;;6.20;;
53108;SDS011;39007;53.090;6.074;2023-05-10T13:10:18;8.38;;;6.13;;
53108;SDS011;39007;53.090;6.074;2023-05-10T13:12:46;9.48;;;6.40;;
53108;SDS011;39007;53.090;6.074;2023-05-10T13:15:12;8.63;;;6.30;;
53108;SDS011;39007;53.090;6.074;2023-05-10T13:17:41;9.55;;;5.60;;
53108;SDS011;39007;53.090;6.074;2023-05-10T13:20:08;7.63;;;5.00;;
53108;SDS011;39007;53.090;6.074;2023-05-10T13:22:34;6.80;;;4.30;;
53108;SDS011;39007;53.090;6.074;2023-05-10T13:25:03;6.05;;;4.13;;
53108;SDS011;39007;53.090;6.074;2023-05-10T13:27:30;7.38;;;4.85;;
53108;SDS011;39007;53.090;6.074;2023-05-10T13:29:57;7.30;;;5.38;;
53108;SDS011;39007;53.090;6.074;2023-05-10T13:32:25;7.47;;;5.22;;
53108;SDS011;39007;53.090;6.074;2023-05-10T13:34:51;8.63;;;5.50;;
53108;SDS011;39007;53.090;6.074;2023-05-10T13:37:17;9.98;;;6.47;;
53108;SDS011;39007;53.090;6.074;2023-05-10T13:39:44;11.88;;;7.07;;
53108;SDS011;39007;53.090;6.074;2023-05-10T13:42:13;11.88;;;7.18;;
53108;SDS011;39007;53.090;6.074;2023-05-10T13:44:39;9.20;;;6.15;;
53108;SDS011;39007;53.090;6.074;2023-05-10T13:47:05;9.57;;;7.05;;
53108;SDS011;39007;53.090;6.074;2023-05-10T13:49:36;8.90;;;7.32;;
53108;SDS011;39007;53.090;6.074;2023-05-10T13:52:03;12.35;;;9.07;;
53108;SDS011;39007;53.090;6.074;2023-05-10T13:54:32;12.85;;;9.63;;
53108;SDS011;39007;53.090;6.074;2023-05-10T13:56:59;12.07;;;9.27;;
53108;SDS011;39007;53.090;6.074;2023-05-10T13:59:25;15.68;;;9.30;;
53108;SDS011;39007;53.090;6.074;2023-05-10T14:01:52;9.65;;;7.38;;
53108;SDS011;39007;53.090;6.074;2023-05-10T14:04:18;9.98;;;7.68;;
53108;SDS011;39007;53.090;6.074;2023-05-10T14:06:48;8.70;;;7.13;;
53108;SDS011;39007;53.090;6.074;2023-05-10T14:09:14;9.75;;;7.53;;
53108;SDS011;39007;53.090;6.074;2023-05-10T14:11:45;10.88;;;6.22;;
53108;SDS011;39007;53.090;6.074;2023-05-10T14:14:11;8.38;;;6.30;;
53108;SDS011;39007;53.090;6.074;2023-05-10T14:16:42;11.15;;;6.47;;
53108;SDS011;39007;53.090;6.074;2023-05-10T14:19:13;8.05;;;6.05;;
53108;SDS011;39007;53.090;6.074;2023-05-10T14:21:39;9.07;;;5.70;;
53108;SDS011;39007;53.090;6.074;2023-05-10T14:24:06;7.63;;;5.35;;
53108;SDS011;39007;53.090;6.074;2023-05-10T14:26:32;7.40;;;5.05;;
53108;SDS011;39007;53.090;6.074;2023-05-10T14:29:02;6.78;;;4.50;;
53108;SDS011;39007;53.090;6.074;2023-05-10T14:31:29;5.88;;;3.97;;
53108;SDS011;39007;53.090;6.074;2023-05-10T14:33:55;5.57;;;3.58;;
53108;SDS011;39007;53.090;6.074;2023-05-10T14:36:25;9.63;;;4.80;;
53108;SDS011;39007;53.090;6.074;2023-05-10T14:38:52;10.85;;;5.00;;
53108;SDS011;39007;53.090;6.074;2023-05-10T14:41:18;8.95;;;6.68;;
53108;SDS011;39007;53.090;6.074;2023-05-10T14:43:44;7.47;;;5.90;;
53108;SDS011;39007;53.090;6.074;2023-05-10T14:46:11;9.82;;;7.55;;
53108;SDS011;39007;53.090;6.074;2023-05-10T14:48:37;11.73;;;7.18;;
53108;SDS011;39007;53.090;6.074;2023-05-10T14:51:03;10.23;;;8.30;;
53108;SDS011;39007;53.090;6.074;2023-05-10T14:53:29;10.43;;;7.78;;
53108;SDS011;39007;53.090;6.074;2023-05-10T14:55:55;10.25;;;8.13;;
53108;SDS011;39007;53.090;6.074;2023-05-10T14:58:22;10.18;;;7.18;;
53108;SDS011;39007;53.090;6.074;2023-05-10T15:00:48;9.73;;;6.90;;
53108;SDS011;39007;53.090;6.074;2023-05-10T15:03:14;7.28;;;6.15;;
53108;SDS011;39007;53.090;6.074;2023-05-10T15:05:40;7.03;;;5.82;;
53108;SDS011;39007;53.090;6.074;2023-05-10T15:08:10;10.75;;;6.05;;
53108;SDS011;39007;53.090;6.074;2023-05-10T15:10:40;7.55;;;5.78;;
53108;SDS011;39007;53.090;6.074;2023-05-10T15:13:06;6.80;;;5.05;;
53108;SDS011;39007;53.090;6.074;2023-05-10T15:15:32;6.90;;;5.47;;
53108;SDS011;39007;53.090;6.074;2023-05-10T15:17:58;6.28;;;5.15;;
53108;SDS011;39007;53.090;6.074;2023-05-10T15:20:24;8.15;;;5.40;;
53108;SDS011;39007;53.090;6.074;2023-05-10T15:22:50;8.75;;;5.82;;
53108;SDS011;39007;53.090;6.074;2023-05-10T15:25:17;7.95;;;6.00;;
53108;SDS011;39007;53.090;6.074;2023-05-10T15:27:43;6.50;;;5.70;;
53108;SDS011;39007;53.090;6.074;2023-05-10T15:30:10;7.60;;;6.22;;